Time;durP1;ratioP1;P1;durP2;ratioP2;P2;SDS_P1;SDS_P2;PMS_P1;PMS_P2;Temp;Humidity;BMP_temperature;BMP_pressure;BME280_temperature;BME280_humidity;BME280_pressure;Samples;Min_cycle;Max_cycle;Signal;HPM_P1;HPM_P2
2023/06/05 00:00:47;;;;;;;5.80;3.42;;;16.80;76.60;;;;;;5016177;28;20026;-86
2023/06/05 00:03:12;;;;;;;7.38;3.92;;;16.80;76.60;;;;;;5016581;28;20484;-85
2023/06/05 00:05:38;;;;;;;5.35;3.08;;;16.80;76.60;;;;;;5015268;28;20037;-85
2023/06/05 00:08:03;;;;;;;7.38;3.50;;;16.90;76.60;;;;;;5014276;28;20396;-85
2023/06/05 00:10:29;;;;;;;5.93;3.40;;;16.90;76.60;;;;;;5016679;28;20034;-86
2023/06/05 00:12:55;;;;;;;6.15;3.40;;;16.90;76.50;;;;;;5015342;28;20026;-85
2023/06/05 00:15:20;;;;;;;6.15;3.10;;;16.90;76.50;;;;;;5016503;28;20026;-86
2023/06/05 00:17:47;;;;;;;5.60;3.20;;;16.90;76.40;;;;;;5018626;28;20022;-86
2023/06/05 00:20:12;;;;;;;5.95;3.40;;;16.90;76.50;;;;;;5019998;28;20581;-87
2023/06/05 00:22:38;;;;;;;5.43;3.00;;;16.90;76.70;;;;;;5019581;28;20033;-86
2023/06/05 00:25:05;;;;;;;7.53;4.03;;;16.90;76.60;;;;;;5018290;28;20059;-85
2023/06/05 00:27:31;;;;;;;6.88;4.00;;;16.90;76.40;;;;;;5017853;28;20033;-85
2023/06/05 00:29:56;;;;;;;7.00;3.60;;;16.90;76.30;;;;;;5018373;28;20396;-86
2023/06/05 00:32:22;;;;;;;7.95;4.60;;;16.80;76.30;;;;;;5017016;28;20100;-86
2023/06/05 00:34:49;;;;;;;7.78;4.35;;;16.80;76.40;;;;;;5017190;28;20108;-86
2023/06/05 00:37:15;;;;;;;6.95;4.07;;;16.80;76.40;;;;;;5018227;28;20387;-86
2023/06/05 00:39:41;;;;;;;7.75;4.50;;;16.80;76.40;;;;;;5017134;28;20057;-86
2023/06/05 00:42:08;;;;;;;7.22;4.38;;;16.80;76.40;;;;;;5011919;28;20057;-86
2023/06/05 00:44:34;;;;;;;7.05;4.20;;;16.80;76.50;;;;;;5016753;28;20018;-85
2023/06/05 00:47:00;;;;;;;6.30;3.13;;;16.70;76.40;;;;;;5015882;28;20033;-85
2023/06/05 00:49:26;;;;;;;7.53;4.00;;;16.80;76.50;;;;;;5015991;28;20030;-85
2023/06/05 00:51:52;;;;;;;7.55;4.28;;;16.70;76.40;;;;;;5011865;28;20029;-86
2023/06/05 00:54:18;;;;;;;6.75;3.78;;;16.70;76.40;;;;;;5013970;28;20026;-85
2023/06/05 00:56:44;;;;;;;7.43;4.43;;;16.70;76.40;;;;;;5016975;28;20042;-85
2023/06/05 00:59:12;;;;;;;6.60;3.60;;;16.70;76.40;;;;;;5014959;28;20403;-85
2023/06/05 01:01:38;;;;;;;6.35;4.13;;;16.70;76.40;;;;;;5014123;28;20057;-85
2023/06/05 01:04:03;;;;;;;7.75;3.70;;;16.70;76.40;;;;;;5015478;28;20026;-86
2023/06/05 01:06:34;;;;;;;6.88;3.42;;;16.70;76.40;;;;;;5014627;28;20643;-86
2023/06/05 01:09:00;;;;;;;7.40;3.90;;;16.70;76.40;;;;;;5014330;28;20030;-85
2023/06/05 01:11:37;;;;;;;6.45;3.50;;;16.70;76.40;;;;;;5012538;28;20084;-86
2023/06/05 01:14:27;;;;;;;6.63;3.50;;;16.70;76.50;;;;;;5026540;28;20441;-85
2023/06/05 01:16:54;;;;;;;6.90;3.78;;;16.70;76.50;;;;;;5013554;28;20515;-86
2023/06/05 01:19:24;;;;;;;6.03;3.10;;;16.70;76.50;;;;;;5015907;28;20125;-86
2023/06/05 01:21:50;;;;;;;5.90;3.58;;;16.70;76.50;;;;;;5016556;28;20049;-85
2023/06/05 01:24:17;;;;;;;5.97;3.40;;;16.70;76.50;;;;;;5016848;28;20026;-85
2023/06/05 01:27:15;;;;;;;6.65;3.63;;;16.70;76.60;;;;;;5016647;28;20053;-85
2023/06/05 01:30:03;;;;;;;6.72;3.55;;;16.70;76.50;;;;;;5016518;28;20025;-85
2023/06/05 01:32:40;;;;;;;5.82;3.25;;;16.70;76.50;;;;;;5015497;28;20104;-85
2023/06/05 01:35:08;;;;;;;7.70;4.82;;;16.70;76.60;;;;;;5015868;28;20022;-84
2023/06/05 01:37:40;;;;;;;7.07;4.25;;;16.70;76.50;;;;;;5017109;28;20392;-85
2023/06/05 01:40:10;;;;;;;6.00;3.65;;;16.70;76.50;;;;;;5017236;28;20025;-85
2023/06/05 01:42:37;;;;;;;6.55;3.67;;;16.70;76.50;;;;;;5012307;28;20479;-85
2023/06/05 01:45:05;;;;;;;6.55;3.97;;;16.70;76.40;;;;;;4995647;28;20026;-84
2023/06/05 01:47:31;;;;;;;7.30;3.97;;;16.80;76.60;;;;;;4995787;28;20499;-85
2023/06/05 01:49:57;;;;;;;6.45;4.15;;;16.80;76.50;;;;;;4995558;28;20031;-85
2023/06/05 01:52:22;;;;;;;8.38;4.75;;;16.80;76.40;;;;;;5005521;28;20034;-84
2023/06/05 01:54:49;;;;;;;6.90;4.00;;;16.80;76.40;;;;;;5014649;28;20018;-85
2023/06/05 01:57:15;;;;;;;8.27;4.65;;;16.80;76.30;;;;;;5015202;28;20071;-84
2023/06/05 01:59:43;;;;;;;7.65;4.55;;;16.80;76.30;;;;;;5014708;28;20108;-85
2023/06/05 02:02:08;;;;;;;6.50;3.80;;;16.80;76.30;;;;;;5013338;28;20026;-85
2023/06/05 02:04:34;;;;;;;7.97;3.33;;;16.80;76.40;;;;;;5014956;28;20029;-84
2023/06/05 02:07:03;;;;;;;7.55;4.18;;;16.80;76.50;;;;;;5014376;28;20108;-84
2023/06/05 02:09:32;;;;;;;7.38;4.40;;;16.80;76.30;;;;;;5014620;28;20034;-85
2023/06/05 02:11:58;;;;;;;6.68;4.22;;;16.80;76.30;;;;;;5010154;28;20508;-85
2023/06/05 02:14:24;;;;;;;8.50;5.38;;;16.80;76.40;;;;;;5012306;28;20052;-84
2023/06/05 02:16:50;;;;;;;8.40;5.47;;;16.70;76.40;;;;;;5013849;28;20022;-84
2023/06/05 02:19:16;;;;;;;8.38;5.35;;;16.70;76.30;;;;;;5014022;28;20022;-84
2023/06/05 02:21:42;;;;;;;9.13;5.82;;;16.70;76.30;;;;;;5011430;28;20022;-84
2023/06/05 02:24:07;;;;;;;7.97;5.10;;;16.70;76.30;;;;;;5013554;28;20084;-85
2023/06/05 02:26:33;;;;;;;7.38;4.88;;;16.70;76.40;;;;;;5014992;28;20021;-84
2023/06/05 02:29:00;;;;;;;6.85;4.55;;;16.70;76.40;;;;;;5015032;28;20072;-85
2023/06/05 02:31:28;;;;;;;7.78;4.45;;;16.70;76.40;;;;;;5010803;28;20026;-84
2023/06/05 02:33:55;;;;;;;6.43;4.10;;;16.70;76.40;;;;;;5013073;28;20098;-85
2023/06/05 02:36:24;;;;;;;7.45;4.85;;;16.70;76.40;;;;;;5013737;28;20443;-84
2023/06/05 02:38:51;;;;;;;7.90;5.20;;;16.60;76.40;;;;;;5013658;28;20030;-84
2023/06/05 02:41:17;;;;;;;7.70;4.75;;;16.70;76.40;;;;;;5013106;28;20025;-87
2023/06/05 02:43:44;;;;;;;7.32;4.60;;;16.70;76.40;;;;;;5013200;28;20652;-84
2023/06/05 02:46:09;;;;;;;7.53;4.53;;;16.70;76.40;;;;;;5014505;28;20044;-84
2023/06/05 02:48:35;;;;;;;8.45;4.95;;;16.70;76.40;;;;;;5017530;28;20512;-84
2023/06/05 02:51:00;;;;;;;7.32;4.70;;;16.70;76.40;;;;;;5015168;28;20018;-84
2023/06/05 02:53:26;;;;;;;8.25;5.00;;;16.60;76.30;;;;;;5001869;28;20122;-85
2023/06/05 02:55:53;;;;;;;7.28;4.43;;;16.60;76.40;;;;;;5012888;28;20018;-85
2023/06/05 02:58:19;;;;;;;7.70;4.45;;;16.70;76.40;;;;;;5013291;28;20056;-84
2023/06/05 03:00:45;;;;;;;6.95;4.40;;;16.60;76.40;;;;;;5014625;28;20018;-84
2023/06/05 03:03:12;;;;;;;7.00;4.65;;;16.70;76.40;;;;;;5016003;28;20072;-86
2023/06/05 03:05:38;;;;;;;7.38;4.63;;;16.60;76.40;;;;;;5020100;28;20049;-86
2023/06/05 03:08:03;;;;;;;7.13;4.57;;;16.60;76.40;;;;;;5018885;28;20507;-85
2023/06/05 03:10:29;;;;;;;7.30;4.55;;;16.70;76.50;;;;;;5019683;28;20022;-85
2023/06/05 03:12:55;;;;;;;6.55;4.22;;;16.60;76.40;;;;;;5018329;28;20141;-85
2023/06/05 03:15:20;;;;;;;7.47;4.85;;;16.60;76.60;;;;;;5019093;28;20072;-86
2023/06/05 03:17:47;;;;;;;7.63;5.13;;;16.70;76.40;;;;;;5018082;28;20372;-85
2023/06/05 03:20:13;;;;;;;7.63;5.07;;;16.60;76.40;;;;;;5018469;28;20377;-85
2023/06/05 03:22:39;;;;;;;7.85;5.30;;;16.60;76.30;;;;;;5015529;28;20396;-85
2023/06/05 03:25:05;;;;;;;9.40;5.75;;;16.60;76.20;;;;;;5017392;28;20026;-87
2023/06/05 03:27:31;;;;;;;8.35;5.18;;;16.70;76.20;;;;;;5013883;28;20496;-86
2023/06/05 03:29:58;;;;;;;7.60;4.85;;;16.70;76.30;;;;;;5012569;28;20188;-87
2023/06/05 03:32:24;;;;;;;7.78;5.05;;;16.70;76.30;;;;;;5008279;28;20026;-86
2023/06/05 03:34:50;;;;;;;9.00;6.38;;;16.80;76.30;;;;;;5012470;28;20807;-86
2023/06/05 03:37:18;;;;;;;9.45;6.30;;;16.80;76.20;;;;;;5012761;28;20084;-87
2023/06/05 03:53:39;;;;;;;9.40;6.13;;;16.70;76.00;;;;;;4917938;29;20029;-81
2023/06/05 03:57:00;;;;;;;8.50;5.57;;;16.80;76.00;;;;;;4897438;28;20111;-85
2023/06/05 03:59:49;;;;;;;7.32;4.72;;;16.70;76.00;;;;;;4976146;28;20026;-85
2023/06/05 04:03:05;;;;;;;10.55;6.90;;;16.70;76.20;;;;;;4983896;28;20060;-87
2023/06/05 04:05:42;;;;;;;10.55;6.95;;;17.30;76.60;;;;;;4994621;28;20038;-87
2023/06/05 04:08:09;;;;;;;10.93;7.07;;;16.70;76.20;;;;;;4989645;28;20030;-83
2023/06/05 04:10:54;;;;;;;7.90;5.03;;;16.60;76.10;;;;;;4972502;28;20126;-83
2023/06/05 04:14:18;;;;;;;9.45;5.68;;;16.70;76.20;;;;;;4978927;28;20027;-84
2023/06/05 04:17:39;;;;;;;8.73;5.55;;;16.70;76.20;;;;;;4942458;28;20142;-83
2023/06/05 04:21:09;;;;;;;9.02;6.47;;;16.60;76.10;;;;;;4971494;28;20042;-83
2023/06/05 04:23:56;;;;;;;9.23;6.20;;;16.50;76.10;;;;;;4930015;28;20035;-83
2023/06/05 04:40:06;;;;;;;9.07;6.25;;;16.60;76.70;;;;;;4912420;29;20031;-83
2023/06/05 04:49:16;;;;;;;10.32;6.85;;;16.60;76.20;;;;;;4984661;28;20097;-82
2023/06/05 04:52:26;;;;;;;10.50;7.63;;;17.10;77.10;;;;;;4970865;28;20038;-83
2023/06/05 04:55:36;;;;;;;10.80;7.50;;;16.70;76.40;;;;;;4987086;28;20111;-83
2023/06/05 05:12:48;;;;;;;9.95;6.80;;;16.70;76.40;;;;;;4920277;29;20091;-85
2023/06/05 05:15:14;;;;;;;10.52;7.00;;;16.70;76.30;;;;;;4900042;29;20028;-86
2023/06/05 05:17:40;;;;;;;10.45;7.75;;;16.80;76.30;;;;;;4934323;29;20477;-86
2023/06/05 05:20:06;;;;;;;11.43;6.90;;;16.80;76.20;;;;;;4984201;28;20030;-86
2023/06/05 05:22:32;;;;;;;11.10;7.07;;;16.80;76.30;;;;;;5000088;28;20519;-87
2023/06/05 05:24:57;;;;;;;10.25;7.18;;;16.80;76.20;;;;;;4991463;28;20074;-86
2023/06/05 05:27:24;;;;;;;10.73;6.68;;;16.80;76.00;;;;;;4991484;28;20080;-87
2023/06/05 05:29:50;;;;;;;10.80;6.75;;;16.80;75.90;;;;;;4991371;28;20023;-86
2023/06/05 05:32:15;;;;;;;10.32;6.93;;;16.90;75.90;;;;;;4984550;28;20030;-86
2023/06/05 05:34:41;;;;;;;9.68;6.30;;;16.90;75.90;;;;;;4994485;28;20129;-86
2023/06/05 05:37:06;;;;;;;10.95;6.88;;;16.90;75.90;;;;;;4994504;28;20033;-86
2023/06/05 05:39:32;;;;;;;10.27;6.38;;;16.90;75.90;;;;;;4994661;28;20137;-86
2023/06/05 05:41:59;;;;;;;10.65;6.68;;;16.90;76.00;;;;;;4994267;28;20022;-86
2023/06/05 05:44:25;;;;;;;10.30;6.30;;;16.90;76.00;;;;;;4991219;28;20401;-86
2023/06/05 05:46:50;;;;;;;10.73;7.10;;;16.90;76.10;;;;;;4991021;28;20066;-86
2023/06/05 05:49:16;;;;;;;10.32;7.00;;;16.90;76.20;;;;;;4991475;28;20070;-86
2023/06/05 05:51:41;;;;;;;9.88;6.50;;;16.80;76.10;;;;;;4991744;28;20027;-86
2023/06/05 05:54:07;;;;;;;11.80;7.57;;;16.80;76.20;;;;;;4986338;28;20073;-86
2023/06/05 05:56:34;;;;;;;10.52;7.35;;;16.80;76.20;;;;;;4976250;28;20592;-86
2023/06/05 05:58:59;;;;;;;10.18;7.18;;;16.80;76.20;;;;;;4974810;28;20412;-85
2023/06/05 06:01:25;;;;;;;11.65;7.60;;;16.80;76.30;;;;;;4976087;28;20039;-86
2023/06/05 06:03:51;;;;;;;10.27;7.03;;;16.80;76.30;;;;;;4990795;28;20023;-86
2023/06/05 06:06:17;;;;;;;9.32;6.45;;;16.80;76.30;;;;;;4977772;28;20033;-86
2023/06/05 06:08:42;;;;;;;11.65;7.45;;;16.80;76.30;;;;;;4995343;28;20031;-86
2023/06/05 06:11:09;;;;;;;8.77;6.40;;;16.80;76.30;;;;;;4993878;28;20069;-85
2023/06/05 06:13:34;;;;;;;10.57;6.93;;;16.80;76.30;;;;;;4988106;28;20428;-85
2023/06/05 06:16:01;;;;;;;8.75;6.15;;;16.80;76.30;;;;;;4993913;28;20098;-86
2023/06/05 06:18:27;;;;;;;10.27;6.25;;;16.90;76.30;;;;;;4993667;28;20495;-86
2023/06/05 06:20:53;;;;;;;10.35;7.15;;;16.90;76.30;;;;;;4995558;28;20101;-86
2023/06/05 06:23:18;;;;;;;10.10;6.18;;;16.80;76.30;;;;;;4993425;28;20026;-85
2023/06/05 06:25:44;;;;;;;10.63;7.20;;;16.90;76.30;;;;;;4993819;28;20030;-86
2023/06/05 06:28:10;;;;;;;9.75;6.65;;;16.90;76.30;;;;;;4994668;28;20053;-86
2023/06/05 06:30:36;;;;;;;10.75;7.38;;;16.90;76.30;;;;;;4993695;28;20022;-85
2023/06/05 06:33:03;;;;;;;10.77;7.43;;;16.90;76.30;;;;;;4993302;28;20061;-86
2023/06/05 06:35:31;;;;;;;10.60;7.20;;;16.90;76.20;;;;;;4994657;28;20015;-85
2023/06/05 06:37:57;;;;;;;10.55;7.30;;;16.90;76.20;;;;;;4994419;28;20050;-86
2023/06/05 06:40:24;;;;;;;12.00;7.80;;;16.90;76.20;;;;;;4994416;28;20026;-86
2023/06/05 06:42:50;;;;;;;11.13;7.32;;;16.90;76.20;;;;;;4994888;28;20037;-86
2023/06/05 06:45:17;;;;;;;10.80;6.70;;;16.90;76.20;;;;;;4994529;28;20177;-85
2023/06/05 06:47:43;;;;;;;11.10;7.78;;;17.00;76.20;;;;;;4993219;28;20050;-86
2023/06/05 06:50:09;;;;;;;9.35;6.60;;;17.00;76.20;;;;;;4993404;28;20474;-85
2023/06/05 06:52:35;;;;;;;10.38;6.68;;;17.00;76.10;;;;;;5003723;28;20026;-86
2023/06/05 06:55:00;;;;;;;10.38;7.50;;;17.00;76.10;;;;;;4997171;28;20026;-86
2023/06/05 06:57:26;;;;;;;9.98;7.03;;;17.00;76.00;;;;;;4995339;28;20074;-86
2023/06/05 06:59:53;;;;;;;9.98;6.40;;;17.10;76.00;;;;;;4995199;28;20647;-86
2023/06/05 07:02:20;;;;;;;9.95;7.38;;;17.10;75.80;;;;;;4994649;28;20050;-86
2023/06/05 07:04:47;;;;;;;11.27;7.55;;;17.10;75.80;;;;;;4991187;28;20043;-86
2023/06/05 07:07:14;;;;;;;11.23;7.50;;;17.20;75.70;;;;;;4990835;28;20117;-86
2023/06/05 07:09:40;;;;;;;10.63;6.60;;;17.20;75.70;;;;;;4974598;28;20027;-86
2023/06/05 07:12:09;;;;;;;10.25;7.15;;;17.20;75.50;;;;;;4997218;28;20022;-86
2023/06/05 07:14:34;;;;;;;11.30;7.57;;;17.20;75.50;;;;;;4988026;28;20033;-87
2023/06/05 07:17:00;;;;;;;11.45;7.93;;;17.30;75.50;;;;;;4974045;28;20023;-86
2023/06/05 07:19:30;;;;;;;10.80;7.65;;;17.30;75.50;;;;;;4974365;28;20520;-87
2023/06/05 07:21:57;;;;;;;10.13;7.07;;;17.30;75.40;;;;;;4975415;28;20508;-86
2023/06/05 07:24:28;;;;;;;10.63;7.00;;;17.30;75.40;;;;;;4979211;28;20118;-86
2023/06/05 07:26:55;;;;;;;10.10;6.88;;;17.30;75.40;;;;;;4974175;28;20035;-86
2023/06/05 07:29:23;;;;;;;11.32;7.25;;;17.30;75.40;;;;;;4990152;28;20031;-86
2023/06/05 07:31:49;;;;;;;10.98;7.63;;;17.30;75.50;;;;;;4991239;28;20181;-86
2023/06/05 07:34:15;;;;;;;10.38;7.32;;;17.30;75.50;;;;;;4991078;28;20022;-86
2023/06/05 07:36:41;;;;;;;10.63;7.20;;;17.30;75.50;;;;;;4994302;28;20049;-87
2023/06/05 07:39:06;;;;;;;10.35;7.32;;;17.30;75.40;;;;;;4994639;28;20062;-86
2023/06/05 07:41:33;;;;;;;9.93;6.78;;;17.30;75.50;;;;;;4993904;28;20030;-85
2023/06/05 07:43:58;;;;;;;11.23;7.80;;;17.30;75.50;;;;;;4989728;28;20026;-86
2023/06/05 07:46:24;;;;;;;11.75;8.00;;;17.30;75.50;;;;;;4975598;28;20027;-86
2023/06/05 07:48:49;;;;;;;10.55;7.50;;;17.30;75.60;;;;;;4998084;28;20034;-86
2023/06/05 07:51:17;;;;;;;10.95;7.45;;;17.30;75.50;;;;;;4993043;28;20030;-87
2023/06/05 07:53:44;;;;;;;11.13;7.75;;;17.30;75.60;;;;;;4993215;28;20488;-86
2023/06/05 07:56:11;;;;;;;11.20;8.00;;;17.40;75.60;;;;;;4993045;28;20046;-86
2023/06/05 07:58:37;;;;;;;11.40;7.97;;;17.40;75.50;;;;;;4993983;28;20176;-86
2023/06/05 08:01:06;;;;;;;10.27;7.25;;;17.40;75.50;;;;;;5008985;28;20065;-86
2023/06/05 08:03:32;;;;;;;11.88;8.20;;;17.40;75.50;;;;;;4991956;28;20053;-86
2023/06/05 08:05:58;;;;;;;11.57;7.45;;;17.40;75.50;;;;;;4996637;28;20026;-85
2023/06/05 08:08:24;;;;;;;10.43;7.65;;;17.40;75.40;;;;;;4993542;28;20109;-86
2023/06/05 08:10:49;;;;;;;10.35;7.15;;;17.50;75.40;;;;;;4993685;28;20031;-86
2023/06/05 08:13:15;;;;;;;12.55;8.05;;;17.50;75.40;;;;;;4991656;28;20072;-86
2023/06/05 08:15:40;;;;;;;10.63;7.70;;;17.50;75.40;;;;;;4993519;28;20417;-86
2023/06/05 08:18:06;;;;;;;10.60;7.93;;;17.50;75.30;;;;;;4993227;28;20037;-86
2023/06/05 08:20:31;;;;;;;10.52;7.20;;;17.50;75.30;;;;;;4992751;28;20037;-86
2023/06/05 08:22:57;;;;;;;11.95;8.07;;;17.50;75.20;;;;;;4994222;28;20026;-86
2023/06/05 08:25:24;;;;;;;12.52;8.25;;;17.50;75.20;;;;;;4989776;28;20027;-86
2023/06/05 08:27:49;;;;;;;10.40;7.65;;;17.60;75.20;;;;;;4989721;28;20215;-86
2023/06/05 08:30:16;;;;;;;11.07;7.63;;;17.60;75.20;;;;;;4993848;28;20027;-86
2023/06/05 08:32:43;;;;;;;10.48;7.38;;;17.60;75.20;;;;;;5002199;28;20445;-86
2023/06/05 08:35:09;;;;;;;11.80;7.88;;;17.60;75.10;;;;;;4978773;28;20027;-86
2023/06/05 08:37:35;;;;;;;10.18;7.30;;;17.60;75.10;;;;;;4978498;28;20019;-86
2023/06/05 08:40:08;;;;;;;10.75;7.97;;;17.60;75.10;;;;;;4977243;28;20113;-86
2023/06/05 08:42:33;;;;;;;11.23;8.15;;;17.70;75.00;;;;;;4986370;28;20120;-86
2023/06/05 08:44:59;;;;;;;12.00;8.07;;;17.70;74.90;;;;;;5012770;28;20058;-86
2023/06/05 08:47:28;;;;;;;10.18;7.10;;;17.70;74.80;;;;;;4996089;28;20037;-86
2023/06/05 08:49:55;;;;;;;10.68;7.57;;;17.80;74.70;;;;;;4996039;28;20042;-86
2023/06/05 08:52:22;;;;;;;10.45;7.18;;;17.80;74.60;;;;;;4992376;28;20023;-86
2023/06/05 08:54:49;;;;;;;10.52;7.32;;;17.80;74.50;;;;;;4996466;28;20072;-85
2023/06/05 08:57:15;;;;;;;10.20;7.57;;;17.80;74.50;;;;;;4997466;28;20062;-86
2023/06/05 08:59:41;;;;;;;10.27;7.38;;;17.80;74.40;;;;;;4995996;28;20033;-86
2023/06/05 09:02:08;;;;;;;11.13;7.45;;;17.90;74.40;;;;;;4992063;28;20448;-85
2023/06/05 09:04:34;;;;;;;11.07;7.50;;;17.90;74.40;;;;;;5006011;28;20027;-86
2023/06/05 09:07:00;;;;;;;10.40;7.15;;;17.90;74.20;;;;;;4995384;28;20117;-85
2023/06/05 09:09:26;;;;;;;10.68;7.65;;;17.90;74.20;;;;;;4995144;28;20026;-85
2023/06/05 09:12:03;;;;;;;10.85;7.68;;;17.90;74.40;;;;;;4994787;28;20029;-86
2023/06/05 09:14:30;;;;;;;9.35;7.03;;;17.90;74.50;;;;;;4992241;28;20030;-86
2023/06/05 09:16:56;;;;;;;10.23;7.10;;;17.90;74.70;;;;;;4991637;28;20054;-86
2023/06/05 09:19:26;;;;;;;11.32;7.72;;;17.90;74.70;;;;;;4991835;28;20034;-86
2023/06/05 09:21:54;;;;;;;10.55;7.53;;;17.90;74.80;;;;;;4996691;28;20026;-85
2023/06/05 09:24:21;;;;;;;10.07;7.28;;;17.90;74.80;;;;;;4991747;28;20034;-85
2023/06/05 09:26:58;;;;;;;10.40;7.07;;;17.90;74.80;;;;;;4976611;28;20464;-86
2023/06/05 09:29:28;;;;;;;11.35;8.13;;;17.90;74.80;;;;;;4992079;28;20033;-86
2023/06/05 09:31:57;;;;;;;9.85;7.20;;;17.90;74.70;;;;;;4977278;28;20179;-86
2023/06/05 09:34:41;;;;;;;11.65;7.45;;;17.90;74.70;;;;;;4991968;28;20022;-85
2023/06/05 09:37:08;;;;;;;10.05;7.03;;;17.90;74.70;;;;;;4994645;28;20029;-86
2023/06/05 09:39:35;;;;;;;10.32;7.45;;;17.90;74.70;;;;;;4994443;28;20068;-86
2023/06/05 09:42:01;;;;;;;11.07;7.88;;;18.00;75.40;;;;;;4995665;28;20022;-85
2023/06/05 09:44:28;;;;;;;10.07;6.95;;;18.00;74.80;;;;;;4995699;28;20030;-85
2023/06/05 09:46:54;;;;;;;10.38;7.05;;;18.00;74.70;;;;;;4985953;28;20041;-85
2023/06/05 09:49:20;;;;;;;9.95;7.03;;;18.00;74.70;;;;;;4974853;28;20122;-85
2023/06/05 09:51:47;;;;;;;9.98;7.43;;;18.00;74.80;;;;;;4978866;28;20076;-86
2023/06/05 09:54:13;;;;;;;10.25;7.40;;;18.00;74.70;;;;;;4990365;28;20038;-85
2023/06/05 09:56:41;;;;;;;10.80;7.78;;;18.00;74.70;;;;;;4975887;28;20030;-85
2023/06/05 09:59:08;;;;;;;9.88;7.05;;;18.00;74.70;;;;;;4990930;28;20057;-86
2023/06/05 10:01:36;;;;;;;10.30;7.53;;;18.00;74.70;;;;;;4993184;28;20056;-86
2023/06/05 10:04:09;;;;;;;9.75;6.82;;;18.00;74.70;;;;;;4995289;28;20023;-86
2023/06/05 10:06:36;;;;;;;9.98;6.97;;;18.00;74.80;;;;;;4994206;28;20135;-85
2023/06/05 10:09:02;;;;;;;10.20;7.07;;;18.00;74.70;;;;;;4993931;28;20036;-86
2023/06/05 10:11:28;;;;;;;10.05;6.85;;;18.00;74.80;;;;;;4994946;28;20105;-85
2023/06/05 10:13:57;;;;;;;10.57;7.40;;;18.00;74.70;;;;;;4993980;28;20462;-86
2023/06/05 10:16:22;;;;;;;9.40;6.97;;;18.00;74.70;;;;;;4981543;28;20137;-86
2023/06/05 10:18:49;;;;;;;10.27;6.85;;;18.10;74.70;;;;;;4975556;28;20528;-85
2023/06/05 10:21:18;;;;;;;10.57;6.93;;;18.10;74.70;;;;;;4977825;28;20027;-85
2023/06/05 10:23:47;;;;;;;10.60;7.07;;;17.90;74.50;;;;;;4992631;28;20027;-86
2023/06/05 10:26:31;;;;;;;9.27;6.40;;;18.10;74.60;;;;;;4978249;28;20150;-82
2023/06/05 10:29:12;;;;;;;10.35;6.97;;;18.10;74.50;;;;;;4977263;28;20469;-86
2023/06/05 10:31:59;;;;;;;9.50;6.53;;;18.20;74.40;;;;;;4980647;28;20019;-86
2023/06/05 10:34:56;;;;;;;8.95;6.18;;;18.20;74.30;;;;;;4996003;28;20053;-86
2023/06/05 10:37:49;;;;;;;9.23;6.82;;;18.20;74.30;;;;;;4995871;28;20022;-86
2023/06/05 10:40:16;;;;;;;9.48;6.75;;;18.20;74.30;;;;;;5012161;28;20033;-86
2023/06/05 10:42:42;;;;;;;9.55;6.60;;;18.20;74.20;;;;;;4996677;28;20026;-86
2023/06/05 10:45:08;;;;;;;8.48;6.28;;;18.20;74.20;;;;;;4995584;28;20037;-86
2023/06/05 10:47:37;;;;;;;8.85;6.30;;;18.20;74.00;;;;;;4983017;28;20113;-86
2023/06/05 10:50:27;;;;;;;9.95;7.00;;;18.20;74.10;;;;;;4975992;28;20126;-86
2023/06/05 10:52:54;;;;;;;9.07;6.50;;;18.20;74.30;;;;;;4989577;28;20026;-86
2023/06/05 10:55:21;;;;;;;9.45;6.32;;;18.20;74.50;;;;;;5011920;28;20054;-86
2023/06/05 10:58:04;;;;;;;9.63;6.75;;;18.10;74.50;;;;;;4995131;28;20552;-86
2023/06/05 11:00:33;;;;;;;8.98;6.55;;;18.10;74.60;;;;;;5011668;28;20551;-86
2023/06/05 11:02:59;;;;;;;9.15;6.70;;;18.10;74.70;;;;;;4992117;28;20030;-85
2023/06/05 11:05:26;;;;;;;9.45;6.35;;;18.10;74.70;;;;;;4994295;28;20507;-86
2023/06/05 11:08:10;;;;;;;9.02;6.07;;;18.10;74.70;;;;;;4994359;28;20095;-86
2023/06/05 11:10:36;;;;;;;9.85;6.07;;;18.10;74.80;;;;;;4994343;28;20034;-86
2023/06/05 11:13:02;;;;;;;8.95;6.45;;;18.10;74.80;;;;;;4993794;28;20509;-86
2023/06/05 11:15:34;;;;;;;9.07;6.43;;;18.10;74.80;;;;;;4997312;28;20026;-86
2023/06/05 11:18:28;;;;;;;8.20;5.72;;;18.10;74.90;;;;;;4996638;28;20019;-86
2023/06/05 11:20:54;;;;;;;8.80;6.13;;;18.10;74.90;;;;;;4997292;28;20019;-86
2023/06/05 11:23:21;;;;;;;9.82;6.80;;;18.10;75.00;;;;;;4994108;28;20496;-86
2023/06/05 11:25:48;;;;;;;9.13;6.57;;;18.10;75.00;;;;;;4996017;28;20022;-85
2023/06/05 11:28:13;;;;;;;9.27;6.43;;;18.10;74.90;;;;;;4995178;28;20026;-86
2023/06/05 11:30:42;;;;;;;9.82;6.72;;;18.10;75.00;;;;;;4996798;28;20088;-86
2023/06/05 11:33:12;;;;;;;8.82;6.07;;;18.10;75.10;;;;;;4995436;28;20022;-86
2023/06/05 11:35:42;;;;;;;9.15;6.03;;;18.10;75.10;;;;;;4996545;28;20022;-86
2023/06/05 11:38:13;;;;;;;9.10;6.28;;;18.00;75.00;;;;;;4994695;28;20053;-86
2023/06/05 11:40:40;;;;;;;9.50;6.57;;;18.10;75.10;;;;;;4995859;28;20512;-86
2023/06/05 11:43:09;;;;;;;8.55;6.00;;;18.10;75.10;;;;;;4987722;28;20373;-86
2023/06/05 11:45:37;;;;;;;8.75;6.07;;;18.10;75.10;;;;;;5008864;28;20034;-86
2023/06/05 11:48:10;;;;;;;9.00;6.10;;;18.10;75.10;;;;;;4993677;28;20138;-86
2023/06/05 11:50:36;;;;;;;9.13;6.18;;;18.10;75.20;;;;;;4993800;28;20030;-86
2023/06/05 11:53:09;;;;;;;9.48;6.47;;;18.00;75.10;;;;;;4990386;28;20025;-86
2023/06/05 11:58:22;;;;;;;;;;;18.00;75.10;;;;;;4995425;28;20572;-86
2023/06/05 12:00:48;;;;;;;9.30;5.93;;;18.00;75.20;;;;;;4993375;28;19948;-85
2023/06/05 12:03:18;;;;;;;9.88;6.38;;;18.10;75.30;;;;;;4988328;28;20456;-86
2023/06/05 12:05:43;;;;;;;9.30;6.13;;;18.10;75.20;;;;;;4994925;28;20441;-86
2023/06/05 12:08:24;;;;;;;8.30;6.00;;;18.10;75.10;;;;;;5009346;28;20030;-85
2023/06/05 12:10:50;;;;;;;8.30;5.72;;;18.10;75.00;;;;;;4994356;28;20089;-85
2023/06/05 12:13:16;;;;;;;8.95;6.13;;;18.10;74.90;;;;;;4994478;28;20022;-86
2023/06/05 12:15:41;;;;;;;9.10;6.45;;;18.10;74.90;;;;;;4992759;28;20081;-86
2023/06/05 12:18:07;;;;;;;8.98;5.80;;;18.10;74.90;;;;;;4992677;28;20113;-86
2023/06/05 12:20:41;;;;;;;8.30;5.57;;;18.10;74.90;;;;;;4994147;28;20117;-86
2023/06/05 12:23:07;;;;;;;8.38;5.50;;;18.10;74.80;;;;;;4992156;28;20445;-86
2023/06/05 12:25:32;;;;;;;8.40;5.57;;;18.10;74.90;;;;;;4989517;28;20065;-85
2023/06/05 12:27:59;;;;;;;9.02;5.90;;;18.10;74.80;;;;;;4989541;28;20412;-86
2023/06/05 12:30:24;;;;;;;7.95;5.20;;;18.10;74.80;;;;;;4989329;28;20027;-85
2023/06/05 12:32:51;;;;;;;8.80;5.72;;;18.10;74.90;;;;;;4987132;28;20038;-86
2023/06/05 12:35:22;;;;;;;8.95;5.60;;;18.00;75.00;;;;;;4993458;28;20053;-86
2023/06/05 12:37:48;;;;;;;;;;;18.00;75.20;;;;;;4992504;28;20443;-86
2023/06/05 12:40:17;;;;;;;8.90;5.53;;;18.00;75.30;;;;;;4993631;28;19912;-86
2023/06/05 12:42:43;;;;;;;8.75;5.85;;;18.00;75.90;;;;;;4991815;28;20125;-86
2023/06/05 12:45:10;;;;;;;8.48;6.10;;;18.00;75.50;;;;;;4992061;28;20089;-86
2023/06/05 12:47:37;;;;;;;8.77;5.75;;;17.90;75.50;;;;;;5008303;28;20373;-86
2023/06/05 12:50:04;;;;;;;7.78;5.47;;;17.90;75.60;;;;;;5008217;28;20038;-86
2023/06/05 12:52:30;;;;;;;8.63;5.95;;;17.90;75.70;;;;;;4991477;28;20027;-86
2023/06/05 12:54:56;;;;;;;9.20;5.93;;;17.90;75.70;;;;;;4987633;28;20027;-86
2023/06/05 12:57:23;;;;;;;8.10;5.60;;;17.90;75.80;;;;;;4991691;28;20543;-85
2023/06/05 12:59:50;;;;;;;8.25;5.75;;;17.90;75.80;;;;;;4991606;28;20489;-85
2023/06/05 13:02:16;;;;;;;8.73;6.00;;;17.90;75.80;;;;;;4991468;28;20440;-85
2023/06/05 13:04:41;;;;;;;9.18;5.93;;;17.90;75.90;;;;;;4991914;28;20031;-86
2023/06/05 13:07:07;;;;;;;7.53;5.35;;;17.90;75.90;;;;;;4992781;28;20029;-85
2023/06/05 13:09:33;;;;;;;8.73;5.90;;;17.90;75.90;;;;;;4991453;28;20489;-86
2023/06/05 13:11:59;;;;;;;8.70;5.68;;;17.90;75.90;;;;;;4992750;28;20130;-86
2023/06/05 13:14:25;;;;;;;8.48;5.80;;;17.90;75.90;;;;;;4991651;28;20034;-85
2023/06/05 13:16:51;;;;;;;8.50;5.57;;;17.90;75.90;;;;;;4975724;28;20616;-86
2023/06/05 13:19:17;;;;;;;7.63;5.25;;;17.80;75.90;;;;;;4975777;28;20121;-85
2023/06/05 13:21:42;;;;;;;7.63;5.28;;;17.80;75.90;;;;;;4980593;28;20026;-86
2023/06/05 13:24:08;;;;;;;8.05;5.30;;;17.80;75.90;;;;;;4989201;28;20178;-85
2023/06/05 13:26:33;;;;;;;7.63;5.00;;;17.80;75.90;;;;;;4975460;28;20027;-85
2023/06/05 13:28:59;;;;;;;8.15;5.47;;;17.80;75.90;;;;;;4976847;28;20161;-85
2023/06/05 13:31:24;;;;;;;7.45;5.00;;;17.80;76.00;;;;;;4975426;28;20571;-85
2023/06/05 13:33:50;;;;;;;8.38;5.95;;;17.80;76.00;;;;;;5008244;28;20033;-85
2023/06/05 13:36:16;;;;;;;7.13;4.88;;;17.80;76.00;;;;;;4994622;28;20029;-86
2023/06/05 13:38:42;;;;;;;8.05;5.60;;;17.80;76.00;;;;;;4994428;28;20632;-85
2023/06/05 13:41:08;;;;;;;8.30;5.63;;;17.80;76.00;;;;;;5010985;28;20027;-85
2023/06/05 13:43:37;;;;;;;7.50;5.25;;;17.80;76.00;;;;;;4993985;28;20026;-86